Del Norte, CO

7:48 PM MDT on July 07, 2015 (GMT -0600)
WestMonteVista | | Change Station
CLOSE
Current Station
Personal Weather Station
Location: Monte Vista, CO
Elevation: 7684 ft
Nearby Weather Stations

Elev 7684 ft 37.59 °N, 106.17 °W | Updated 8 minutes ago

Rain
Rain
56.8 °F
Feels Like 56.8 °F
N
0.0
Wind Variable Wind from NE
Gusts 4.5 mph

Today
High -- | Low -- °F
--% Chance of Precip.
Yesterday
High -- | Low -- °F
Precip. -- in
5:50 AM 8:29 PM
Waning Gibbous, 59% visible
Pressure 29.98 in
Visibility 10.0 miles
Clouds Mostly Cloudy 6000 ft
Overcast 9500 ft
Dew Point 49 °F
Humidity 76%
Rainfall -9999.00 in
Snow Depth Not available.
UV 0 out of 12
Pollen 5.10 out of 12
Air Quality Not available.
Flu Activity Not available.
METAR KALS 080052Z AUTO 03012G17KT 10SM BKN060 OVC095 15/09 A3020 RMK AO2 LTG DSNT N AND NE SLP150 T01500089

More Conditions Fewer Conditions

Pressure 29.98 in
Visibility 10.0 miles
Clouds Mostly Cloudy 6000 ft
Overcast 9500 ft
Dew Point 49 °F
Humidity 76%
Rainfall -9999.00 in
Snow Depth Not available.
UV 0 out of 12
Pollen 5.10 out of 12
Air Quality Not available.
Flu Activity Not available.
METAR KALS 080052Z AUTO 03012G17KT 10SM BKN060 OVC095 15/09 A3020 RMK AO2 LTG DSNT N AND NE SLP150 T01500089

More Conditions Fewer Conditions

10-Day Weather Forecast

×

Almanac

Astronomy

Jul. 07, 2015 Rise Set
Actual Time
Civil Twilight
Nautical Twilight
Astronomical Twilight
Moon
Length of Visible Light
Length of Day
Tomorrow will be .
, % of the Moon is Illuminated

Today's Extremes

State Highs State Lows

Community

WunderPhotos

Upload Photos

1,836,002 photos uploaded!

WunderBlogs® & News

Nearby

Air Quality

  Air Quality AQ Index Pollutant
Not available.

Snow Depth

Station Depth Elevation

Earthquake Activity

City Distance Mag. Time & Date
Minimum magnitude displayed is 2.5.

Coastal Water Temperatures

Place Temperature

Stations

Nearby Weather Stations

Station Location Temp. Windchill Dew Point Humidity Wind Precip. Elev Updated Type